Time;durP1;ratioP1;P1;durP2;ratioP2;P2;SDS_P1;SDS_P2;PMS_P1;PMS_P2;Temp;Humidity;BMP_temperature;BMP_pressure;BME280_temperature;BME280_humidity;BME280_pressure;Samples;Min_cycle;Max_cycle;Signal;HPM_P1;HPM_P2
2021/08/11 00:00:48;;;;;;;5.65;4.00;;;;;;;;;;5071727;28;20516;-58
2021/08/11 00:03:13;;;;;;;7.20;4.70;;;;;;;;;;5070763;28;20054;-60
2021/08/11 00:05:41;;;;;;;5.53;4.20;;;;;;;;;;5070797;28;20044;-61
2021/08/11 00:08:06;;;;;;;5.30;3.78;;;;;;;;;;5070537;28;20041;-60
2021/08/11 00:10:31;;;;;;;4.00;3.60;;;;;;;;;;5071372;28;20489;-61
2021/08/11 00:12:56;;;;;;;4.00;3.40;;;;;;;;;;5071101;28;20029;-60
2021/08/11 00:15:21;;;;;;;4.35;3.58;;;;;;;;;;5064564;28;20027;-60
2021/08/11 00:17:47;;;;;;;3.58;3.00;;;;;;;;;;5071258;28;20024;-60
2021/08/11 00:20:12;;;;;;;9.05;3.38;;;;;;;;;;5071900;28;20024;-60
2021/08/11 00:22:37;;;;;;;5.32;3.58;;;;;;;;;;5075523;28;20052;-60
2021/08/11 00:25:03;;;;;;;4.82;3.47;;;;;;;;;;5074806;28;20539;-60
2021/08/11 00:27:28;;;;;;;4.25;3.28;;;;;;;;;;5072589;28;20059;-60
2021/08/11 00:29:53;;;;;;;4.82;3.33;;;;;;;;;;5057279;28;20052;-60
2021/08/11 00:32:18;;;;;;;4.18;3.05;;;;;;;;;;5056359;28;20025;-60
2021/08/11 00:34:44;;;;;;;5.18;3.22;;;;;;;;;;5074134;28;20059;-61
2021/08/11 00:37:09;;;;;;;5.57;3.55;;;;;;;;;;5073784;28;20021;-61
2021/08/11 00:39:35;;;;;;;4.15;3.50;;;;;;;;;;5074942;28;20019;-61
2021/08/11 00:42:00;;;;;;;5.82;3.92;;;;;;;;;;5074918;28;20012;-61
2021/08/11 00:44:25;;;;;;;5.15;4.00;;;;;;;;;;5074437;28;20383;-61
2021/08/11 00:46:52;;;;;;;4.40;3.88;;;;;;;;;;5073452;28;20479;-61
2021/08/11 00:49:18;;;;;;;6.35;4.55;;;;;;;;;;5054841;28;20029;-60
2021/08/11 00:51:44;;;;;;;6.20;4.30;;;;;;;;;;5054674;28;20433;-61
2021/08/11 00:54:09;;;;;;;5.30;4.57;;;;;;;;;;5065515;28;20482;-61
2021/08/11 00:56:36;;;;;;;6.55;5.35;;;;;;;;;;5071314;28;20019;-60
2021/08/11 00:59:05;;;;;;;5.07;3.90;;;;;;;;;;5053708;28;20028;-60
2021/08/11 01:01:32;;;;;;;6.38;4.40;;;;;;;;;;5072756;28;20374;-60
2021/08/11 01:03:58;;;;;;;5.07;4.10;;;;;;;;;;5071166;28;20482;-60
2021/08/11 01:06:23;;;;;;;5.38;3.92;;;;;;;;;;5054231;28;20045;-60
2021/08/11 01:08:49;;;;;;;5.10;4.35;;;;;;;;;;5069062;28;20027;-61
2021/08/11 01:11:17;;;;;;;4.57;4.10;;;;;;;;;;5072758;28;20090;-60
2021/08/11 01:13:42;;;;;;;6.90;4.72;;;;;;;;;;5074202;28;20031;-60
2021/08/11 01:16:08;;;;;;;5.57;4.53;;;;;;;;;;5074174;28;20158;-60
2021/08/11 01:18:33;;;;;;;7.45;4.72;;;;;;;;;;5074128;28;20020;-60
2021/08/11 01:21:06;;;;;;;7.72;4.65;;;;;;;;;;5073969;28;20069;-60
2021/08/11 01:23:46;;;;;;;5.82;4.18;;;;;;;;;;5074368;28;20092;-60
2021/08/11 01:26:32;;;;;;;5.43;4.00;;;;;;;;;;5054851;28;20055;-57
2021/08/11 01:29:11;;;;;;;4.15;3.30;;;;;;;;;;5068108;28;20021;-61
2021/08/11 01:31:56;;;;;;;5.30;4.30;;;;;;;;;;5052088;28;20024;-60
2021/08/11 01:34:43;;;;;;;5.97;4.75;;;;;;;;;;5059377;28;20035;-61
2021/08/11 01:37:09;;;;;;;5.90;4.78;;;;;;;;;;5073984;28;20021;-60
2021/08/11 01:39:46;;;;;;;5.90;5.00;;;;;;;;;;5057549;28;20063;-60
2021/08/11 01:42:19;;;;;;;5.55;4.68;;;;;;;;;;5066931;28;20023;-60
2021/08/11 01:45:03;;;;;;;7.18;4.25;;;;;;;;;;5073104;28;20081;-61
2021/08/11 01:47:32;;;;;;;5.95;3.85;;;;;;;;;;5054009;28;20036;-61
2021/08/11 01:49:58;;;;;;;6.25;4.70;;;;;;;;;;5053667;28;20029;-61
2021/08/11 01:52:24;;;;;;;6.00;4.63;;;;;;;;;;5066629;28;20359;-61
2021/08/11 01:54:50;;;;;;;7.53;4.70;;;;;;;;;;5064052;28;20012;-61
2021/08/11 01:57:16;;;;;;;5.32;4.43;;;;;;;;;;5048697;28;20034;-61
2021/08/11 01:59:42;;;;;;;5.85;4.25;;;;;;;;;;5073496;28;20055;-60
2021/08/11 02:02:10;;;;;;;4.97;4.43;;;;;;;;;;5071911;28;20048;-61
2021/08/11 02:04:36;;;;;;;4.53;4.07;;;;;;;;;;5057216;28;20028;-61
2021/08/11 02:07:02;;;;;;;5.00;4.05;;;;;;;;;;5072686;28;20052;-61
2021/08/11 02:09:28;;;;;;;4.95;4.47;;;;;;;;;;5073173;28;20025;-61
2021/08/11 02:11:53;;;;;;;7.68;4.00;;;;;;;;;;5072764;28;20028;-60
2021/08/11 02:14:19;;;;;;;3.67;3.38;;;;;;;;;;5071626;28;20156;-61
2021/08/11 02:16:44;;;;;;;7.10;3.97;;;;;;;;;;5061277;28;20462;-61
2021/08/11 02:19:09;;;;;;;4.90;3.80;;;;;;;;;;5072316;28;20099;-61
2021/08/11 02:21:36;;;;;;;4.80;3.65;;;;;;;;;;5072562;28;20020;-61
2021/08/11 02:24:02;;;;;;;3.78;3.33;;;;;;;;;;5072603;28;20390;-61
2021/08/11 02:26:33;;;;;;;4.75;3.58;;;;;;;;;;5072824;28;20450;-61
2021/08/11 02:29:05;;;;;;;3.90;3.03;;;;;;;;;;5073090;28;20113;-61
2021/08/11 02:31:46;;;;;;;5.45;3.35;;;;;;;;;;5072715;28;20029;-61
2021/08/11 02:34:38;;;;;;;5.93;3.58;;;;;;;;;;5071870;28;20086;-61
2021/08/11 02:37:10;;;;;;;3.40;3.10;;;;;;;;;;5050221;28;20089;-61
2021/08/11 02:39:41;;;;;;;5.45;3.53;;;;;;;;;;5072442;28;20463;-61
2021/08/11 02:42:09;;;;;;;5.47;3.80;;;;;;;;;;5072225;28;20037;-61
2021/08/11 02:44:37;;;;;;;4.30;3.65;;;;;;;;;;5067053;28;20028;-61
2021/08/11 02:47:03;;;;;;;3.92;3.20;;;;;;;;;;5072424;28;20031;-61
2021/08/11 02:49:29;;;;;;;5.78;3.15;;;;;;;;;;5068756;28;20402;-61
2021/08/11 02:51:55;;;;;;;3.97;3.13;;;;;;;;;;5071689;28;20043;-61
2021/08/11 02:54:21;;;;;;;6.63;3.95;;;;;;;;;;5055016;28;20103;-61
2021/08/11 02:56:47;;;;;;;4.63;3.00;;;;;;;;;;5059592;28;20103;-61
2021/08/11 02:59:13;;;;;;;5.70;3.53;;;;;;;;;;5072013;28;20031;-61
2021/08/11 03:01:39;;;;;;;4.55;3.78;;;;;;;;;;5072166;28;20107;-61
2021/08/11 03:04:04;;;;;;;5.10;3.63;;;;;;;;;;5070587;28;20020;-60
2021/08/11 03:06:29;;;;;;;5.50;4.10;;;;;;;;;;5070620;28;20503;-61
2021/08/11 03:08:55;;;;;;;5.28;4.38;;;;;;;;;;5071635;28;20035;-61
2021/08/11 03:11:20;;;;;;;4.13;3.72;;;;;;;;;;5071525;28;20438;-61
2021/08/11 03:13:45;;;;;;;7.78;4.50;;;;;;;;;;5071939;28;20024;-61
2021/08/11 03:16:11;;;;;;;5.93;3.88;;;;;;;;;;5071453;28;20021;-61
2021/08/11 03:18:36;;;;;;;5.22;3.88;;;;;;;;;;5072173;28;20016;-61
2021/08/11 03:21:02;;;;;;;7.10;3.75;;;;;;;;;;5071716;28;20035;-61
2021/08/11 03:23:27;;;;;;;5.28;4.15;;;;;;;;;;5071762;28;20496;-61
2021/08/11 03:25:52;;;;;;;5.10;3.97;;;;;;;;;;5062723;28;20017;-59
2021/08/11 03:28:17;;;;;;;4.90;4.13;;;;;;;;;;5069987;28;20359;-61
2021/08/11 03:30:42;;;;;;;5.95;4.38;;;;;;;;;;5070453;28;20462;-61
2021/08/11 03:33:08;;;;;;;8.30;5.07;;;;;;;;;;5071691;28;20035;-61
2021/08/11 03:35:33;;;;;;;5.70;4.00;;;;;;;;;;5071016;28;20026;-61
2021/08/11 03:37:58;;;;;;;5.18;4.07;;;;;;;;;;5071747;28;20022;-61
2021/08/11 03:40:24;;;;;;;8.02;3.67;;;;;;;;;;5071609;28;20013;-62
2021/08/11 03:42:49;;;;;;;7.22;4.03;;;;;;;;;;5070545;28;20020;-62
2021/08/11 03:45:14;;;;;;;5.43;3.72;;;;;;;;;;5071096;28;20032;-61
2021/08/11 03:47:43;;;;;;;5.95;4.13;;;;;;;;;;5051716;28;20017;-61
2021/08/11 03:50:11;;;;;;;4.90;3.58;;;;;;;;;;5066789;28;20386;-61
2021/08/11 03:52:37;;;;;;;4.65;3.63;;;;;;;;;;5070855;28;20486;-61
2021/08/11 03:55:02;;;;;;;7.10;4.72;;;;;;;;;;5071461;28;20109;-60
2021/08/11 03:57:27;;;;;;;4.90;3.70;;;;;;;;;;5075345;28;20111;-61
2021/08/11 03:59:52;;;;;;;5.57;3.92;;;;;;;;;;5075059;28;20379;-60
2021/08/11 04:02:17;;;;;;;5.32;3.67;;;;;;;;;;5074685;28;20158;-61
2021/08/11 04:04:43;;;;;;;4.78;4.15;;;;;;;;;;5075583;28;20055;-60
2021/08/11 04:07:08;;;;;;;4.90;3.42;;;;;;;;;;5075356;28;20045;-60
2021/08/11 04:09:33;;;;;;;6.50;3.28;;;;;;;;;;5074705;28;20382;-61
2021/08/11 04:11:58;;;;;;;6.07;4.13;;;;;;;;;;5074547;28;20494;-61
2021/08/11 04:14:23;;;;;;;8.13;4.03;;;;;;;;;;5074608;28;20020;-61
2021/08/11 04:16:49;;;;;;;7.30;3.90;;;;;;;;;;5073141;28;20066;-61
2021/08/11 04:19:14;;;;;;;5.45;3.35;;;;;;;;;;5067530;28;20031;-61
2021/08/11 04:21:39;;;;;;;4.85;2.90;;;;;;;;;;5075062;28;20111;-61
2021/08/11 04:24:04;;;;;;;6.78;3.55;;;;;;;;;;5075483;28;20048;-61
2021/08/11 04:26:30;;;;;;;5.03;3.38;;;;;;;;;;5075165;28;20067;-61
2021/08/11 04:28:55;;;;;;;6.45;4.55;;;;;;;;;;5072385;28;20020;-61
2021/08/11 04:31:20;;;;;;;4.57;3.45;;;;;;;;;;5074331;28;20035;-61
2021/08/11 04:33:45;;;;;;;3.20;2.20;;;;;;;;;;5074840;28;20607;-61
2021/08/11 04:36:10;;;;;;;3.42;3.13;;;;;;;;;;5075275;28;20028;-61
2021/08/11 04:38:36;;;;;;;3.78;2.50;;;;;;;;;;5075172;28;20032;-61
2021/08/11 04:41:01;;;;;;;2.80;2.33;;;;;;;;;;5073861;28;20031;-62
2021/08/11 04:43:26;;;;;;;3.42;2.80;;;;;;;;;;5069840;28;20060;-61
2021/08/11 04:45:51;;;;;;;4.28;2.72;;;;;;;;;;5070647;28;20025;-61
2021/08/11 04:48:16;;;;;;;3.72;2.50;;;;;;;;;;5069199;28;20016;-61
2021/08/11 04:50:42;;;;;;;2.92;2.38;;;;;;;;;;5069968;28;20036;-61
2021/08/11 04:53:07;;;;;;;2.72;2.47;;;;;;;;;;5068997;28;20103;-61
2021/08/11 04:55:33;;;;;;;5.93;2.05;;;;;;;;;;5074303;28;20023;-61
2021/08/11 04:57:58;;;;;;;3.15;2.30;;;;;;;;;;5070511;28;20025;-61
2021/08/11 05:00:23;;;;;;;3.90;2.38;;;;;;;;;;5074396;28;20373;-61
2021/08/11 05:02:49;;;;;;;3.40;3.10;;;;;;;;;;5073902;28;20013;-61
2021/08/11 05:05:14;;;;;;;4.93;3.13;;;;;;;;;;5074293;28;20028;-61
2021/08/11 05:07:39;;;;;;;4.05;3.50;;;;;;;;;;5072883;28;20392;-61
2021/08/11 05:10:05;;;;;;;6.28;3.35;;;;;;;;;;5085076;28;20032;-61
2021/08/11 05:12:30;;;;;;;4.80;3.25;;;;;;;;;;5076229;28;20024;-61
2021/08/11 05:14:55;;;;;;;4.97;3.00;;;;;;;;;;5071250;28;20086;-61
2021/08/11 05:17:22;;;;;;;5.43;2.97;;;;;;;;;;5060784;28;20017;-61
2021/08/11 05:19:47;;;;;;;4.35;3.03;;;;;;;;;;5072119;28;20413;-61
2021/08/11 05:22:13;;;;;;;5.07;3.17;;;;;;;;;;5072524;28;20021;-60
2021/08/11 05:24:38;;;;;;;4.70;3.15;;;;;;;;;;5073644;28;20028;-61
2021/08/11 05:27:04;;;;;;;6.60;3.53;;;;;;;;;;5071506;28;20066;-61
2021/08/11 05:29:31;;;;;;;4.47;3.05;;;;;;;;;;5073697;28;20028;-61
2021/08/11 05:31:56;;;;;;;3.95;2.80;;;;;;;;;;5072308;28;20021;-61
2021/08/11 05:34:21;;;;;;;3.92;3.00;;;;;;;;;;5053939;28;20025;-62
2021/08/11 05:36:47;;;;;;;4.57;2.50;;;;;;;;;;5061152;28;20017;-62
2021/08/11 05:39:12;;;;;;;3.42;2.13;;;;;;;;;;5063331;28;20117;-61
2021/08/11 05:41:38;;;;;;;2.08;1.88;;;;;;;;;;5073371;28;20031;-62
2021/08/11 05:44:04;;;;;;;3.80;1.98;;;;;;;;;;5066969;28;20016;-62
2021/08/11 05:46:29;;;;;;;3.72;2.30;;;;;;;;;;5066557;28;20470;-62
2021/08/11 05:48:55;;;;;;;3.25;2.10;;;;;;;;;;5073169;28;20044;-61
2021/08/11 05:51:20;;;;;;;4.85;2.22;;;;;;;;;;5070397;28;20478;-62
2021/08/11 05:53:45;;;;;;;3.72;1.90;;;;;;;;;;5073406;28;20024;-62
2021/08/11 05:56:10;;;;;;;4.68;2.30;;;;;;;;;;5073560;28;20463;-62
2021/08/11 05:58:36;;;;;;;2.97;2.20;;;;;;;;;;5041930;28;20428;-62
2021/08/11 06:01:01;;;;;;;4.05;2.40;;;;;;;;;;5072213;28;20009;-63
2021/08/11 06:03:26;;;;;;;2.10;1.90;;;;;;;;;;5073143;28;20020;-61
2021/08/11 06:05:51;;;;;;;3.15;1.77;;;;;;;;;;5072360;28;20025;-61
2021/08/11 06:08:16;;;;;;;2.53;1.77;;;;;;;;;;5061881;28;20398;-61
2021/08/11 06:10:41;;;;;;;2.58;2.22;;;;;;;;;;5059165;28;20031;-61
2021/08/11 06:13:07;;;;;;;2.85;2.15;;;;;;;;;;5068828;28;20036;-62
2021/08/11 06:15:32;;;;;;;2.72;2.10;;;;;;;;;;5073314;28;20037;-61
2021/08/11 06:17:57;;;;;;;2.80;2.10;;;;;;;;;;5065780;28;20534;-62
2021/08/11 06:20:23;;;;;;;3.05;2.10;;;;;;;;;;5071134;28;20096;-61
2021/08/11 06:22:48;;;;;;;2.55;2.20;;;;;;;;;;5068206;28;20053;-62
2021/08/11 06:25:14;;;;;;;2.95;2.33;;;;;;;;;;5072348;28;20024;-62
2021/08/11 06:27:40;;;;;;;3.50;2.38;;;;;;;;;;5073278;28;20449;-62
2021/08/11 06:30:05;;;;;;;2.78;1.75;;;;;;;;;;5070716;28;20026;-61
2021/08/11 06:32:31;;;;;;;1.88;1.65;;;;;;;;;;5072613;28;20052;-62
2021/08/11 06:34:56;;;;;;;3.85;1.95;;;;;;;;;;5072737;28;20016;-61
2021/08/11 06:37:21;;;;;;;2.53;1.60;;;;;;;;;;5072912;28;20029;-62
2021/08/11 06:39:47;;;;;;;1.50;1.40;;;;;;;;;;5072637;28;20181;-61
2021/08/11 06:42:12;;;;;;;2.92;1.95;;;;;;;;;;5072295;28;20067;-60
2021/08/11 06:44:37;;;;;;;3.87;2.13;;;;;;;;;;5072614;28;20028;-61
2021/08/11 06:47:02;;;;;;;2.38;2.05;;;;;;;;;;5072106;28;20377;-61
2021/08/11 06:49:27;;;;;;;2.50;1.92;;;;;;;;;;5072404;28;20482;-63
2021/08/11 06:51:53;;;;;;;3.13;1.98;;;;;;;;;;5071927;28;20017;-61
2021/08/11 06:54:18;;;;;;;2.28;1.60;;;;;;;;;;5072499;28;20019;-61
2021/08/11 06:56:43;;;;;;;3.35;1.67;;;;;;;;;;5072059;28;20012;-61
2021/08/11 06:59:08;;;;;;;4.03;1.90;;;;;;;;;;5072032;28;20100;-62
2021/08/11 07:01:34;;;;;;;2.63;1.73;;;;;;;;;;5071875;28;20273;-61
2021/08/11 07:03:59;;;;;;;5.53;1.88;;;;;;;;;;5072387;28;20091;-61
2021/08/11 07:06:24;;;;;;;1.95;1.70;;;;;;;;;;5071802;28;20040;-60
2021/08/11 07:08:50;;;;;;;2.05;1.83;;;;;;;;;;5055630;28;20021;-63
2021/08/11 07:11:15;;;;;;;3.13;2.00;;;;;;;;;;5060877;28;20058;-62
2021/08/11 07:13:40;;;;;;;4.15;2.50;;;;;;;;;;5071583;28;20100;-63
2021/08/11 07:16:05;;;;;;;2.63;1.90;;;;;;;;;;5072168;28;20027;-63
2021/08/11 07:18:30;;;;;;;3.13;2.17;;;;;;;;;;5071763;28;20294;-61
2021/08/11 07:20:56;;;;;;;2.88;2.15;;;;;;;;;;5071314;28;20711;-62
2021/08/11 07:23:21;;;;;;;4.47;2.25;;;;;;;;;;5071892;28;20541;-61
2021/08/11 07:25:46;;;;;;;2.22;2.00;;;;;;;;;;5066613;28;20138;-61
2021/08/11 07:28:12;;;;;;;3.25;2.22;;;;;;;;;;5069924;28;20031;-61
2021/08/11 07:30:38;;;;;;;3.55;2.00;;;;;;;;;;5067869;28;20027;-61
2021/08/11 07:33:04;;;;;;;2.92;2.30;;;;;;;;;;5064770;28;20020;-60
2021/08/11 07:35:29;;;;;;;2.10;1.90;;;;;;;;;;5065924;28;20019;-61
2021/08/11 07:37:55;;;;;;;2.90;1.80;;;;;;;;;;5064408;28;20025;-61
2021/08/11 07:40:22;;;;;;;3.47;2.00;;;;;;;;;;5051937;28;20031;-61
2021/08/11 07:42:47;;;;;;;3.03;1.95;;;;;;;;;;5074339;28;20473;-61
2021/08/11 07:45:13;;;;;;;2.15;1.20;;;;;;;;;;5089428;28;20027;-61
2021/08/11 07:47:39;;;;;;;1.75;1.55;;;;;;;;;;5071755;28;20016;-61
2021/08/11 07:50:05;;;;;;;2.85;2.00;;;;;;;;;;5064214;28;20066;-61
2021/08/11 07:52:30;;;;;;;2.17;1.52;;;;;;;;;;5052054;28;20029;-61
2021/08/11 07:54:56;;;;;;;2.67;1.83;;;;;;;;;;5050040;28;20021;-61
2021/08/11 07:57:21;;;;;;;3.55;1.60;;;;;;;;;;5063131;28;20084;-61
2021/08/11 07:59:46;;;;;;;3.55;1.85;;;;;;;;;;5070971;28;20460;-61
2021/08/11 08:02:13;;;;;;;1.63;1.25;;;;;;;;;;5079317;28;20028;-61
2021/08/11 08:04:40;;;;;;;2.85;1.25;;;;;;;;;;5053868;28;20025;-61
2021/08/11 08:07:06;;;;;;;2.92;1.48;;;;;;;;;;5053259;28;20467;-61
2021/08/11 08:09:31;;;;;;;2.20;1.87;;;;;;;;;;5069574;28;20078;-61
2021/08/11 08:11:56;;;;;;;1.90;1.70;;;;;;;;;;5051497;28;20341;-61
2021/08/11 08:14:21;;;;;;;2.25;1.83;;;;;;;;;;5064180;28;20024;-60
2021/08/11 08:16:47;;;;;;;2.33;1.52;;;;;;;;;;5071145;28;20020;-60
2021/08/11 08:19:12;;;;;;;2.93;2.00;;;;;;;;;;5071148;28;20061;-60
2021/08/11 08:21:37;;;;;;;4.10;2.17;;;;;;;;;;5071179;28;20323;-61
2021/08/11 08:24:03;;;;;;;3.42;1.95;;;;;;;;;;5046375;28;20027;-59
2021/08/11 08:26:28;;;;;;;4.55;2.25;;;;;;;;;;5051245;28;20117;-62
2021/08/11 08:28:53;;;;;;;4.18;2.22;;;;;;;;;;5061818;28;20027;-63
2021/08/11 08:31:18;;;;;;;1.90;1.30;;;;;;;;;;5070466;28;20031;-63
2021/08/11 08:33:44;;;;;;;2.45;1.20;;;;;;;;;;5070259;28;20263;-62
2021/08/11 08:36:10;;;;;;;2.35;1.38;;;;;;;;;;5066946;28;20024;-63
2021/08/11 08:38:35;;;;;;;1.30;1.17;;;;;;;;;;5058440;28;20023;-63
2021/08/11 08:41:00;;;;;;;2.03;1.30;;;;;;;;;;5068139;28;20024;-63
2021/08/11 08:43:26;;;;;;;2.42;1.30;;;;;;;;;;5065012;28;20676;-63
2021/08/11 08:45:52;;;;;;;2.35;1.35;;;;;;;;;;5055258;28;20132;-64
2021/08/11 08:48:17;;;;;;;1.58;1.10;;;;;;;;;;5055054;28;20079;-63
2021/08/11 08:50:42;;;;;;;1.40;0.95;;;;;;;;;;5054888;28;20017;-62
2021/08/11 08:53:08;;;;;;;2.58;1.20;;;;;;;;;;5092592;28;20020;-62
2021/08/11 08:55:33;;;;;;;1.50;1.25;;;;;;;;;;5074390;28;20074;-61
2021/08/11 08:57:59;;;;;;;1.77;1.20;;;;;;;;;;5058060;28;20397;-62
2021/08/11 09:00:25;;;;;;;1.75;1.10;;;;;;;;;;5054775;28;20083;-62
2021/08/11 09:02:50;;;;;;;1.70;0.70;;;;;;;;;;5072424;28;20016;-62
2021/08/11 09:05:16;;;;;;;1.80;1.02;;;;;;;;;;5074668;28;20423;-62
2021/08/11 09:07:45;;;;;;;1.17;1.08;;;;;;;;;;5074420;28;20048;-63
2021/08/11 09:10:16;;;;;;;1.85;1.33;;;;;;;;;;5058058;28;20029;-63
2021/08/11 09:12:45;;;;;;;2.05;1.50;;;;;;;;;;5072949;28;20020;-63
2021/08/11 09:15:29;;;;;;;2.28;1.38;;;;;;;;;;5066901;28;20146;-63
2021/08/11 09:17:55;;;;;;;2.10;1.40;;;;;;;;;;5074145;28;20021;-62
2021/08/11 09:20:22;;;;;;;1.70;1.17;;;;;;;;;;5055246;28;20021;-63
2021/08/11 09:22:48;;;;;;;1.98;0.98;;;;;;;;;;5054390;28;20434;-62
2021/08/11 09:25:14;;;;;;;1.92;1.08;;;;;;;;;;5057218;28;20048;-62
2021/08/11 09:27:40;;;;;;;2.60;1.05;;;;;;;;;;5073726;28;20052;-63
2021/08/11 09:30:08;;;;;;;1.60;1.20;;;;;;;;;;5065905;28;20021;-63
2021/08/11 09:32:52;;;;;;;3.60;1.50;;;;;;;;;;5074009;28;20070;-63
2021/08/11 09:35:18;;;;;;;1.90;1.33;;;;;;;;;;5053943;28;20596;-63
2021/08/11 09:37:44;;;;;;;1.85;1.45;;;;;;;;;;5054060;28;20021;-62
2021/08/11 09:40:09;;;;;;;1.55;1.10;;;;;;;;;;5060543;28;20073;-63
2021/08/11 09:42:35;;;;;;;3.15;1.10;;;;;;;;;;5073541;28;20055;-63
2021/08/11 09:45:00;;;;;;;2.10;1.10;;;;;;;;;;5074143;28;20024;-62
2021/08/11 09:47:27;;;;;;;2.25;0.95;;;;;;;;;;5073927;28;20029;-62
2021/08/11 09:50:05;;;;;;;1.77;1.13;;;;;;;;;;5072303;28;20031;-62
2021/08/11 09:52:47;;;;;;;1.10;1.00;;;;;;;;;;5073746;28;20060;-63
2021/08/11 09:55:12;;;;;;;1.85;0.80;;;;;;;;;;5073465;28;20016;-60
2021/08/11 09:57:37;;;;;;;2.55;1.30;;;;;;;;;;5065353;28;20019;-62
2021/08/11 10:00:03;;;;;;;2.03;0.75;;;;;;;;;;5063818;28;20074;-62
2021/08/11 10:02:28;;;;;;;1.90;0.90;;;;;;;;;;5070558;28;20081;-63
2021/08/11 10:04:53;;;;;;;1.13;1.02;;;;;;;;;;5072977;28;20371;-62
2021/08/11 10:07:19;;;;;;;2.40;1.13;;;;;;;;;;5069628;28;20067;-62
2021/08/11 10:09:59;;;;;;;1.27;1.17;;;;;;;;;;5057479;28;20028;-62
2021/08/11 10:12:27;;;;;;;2.55;1.00;;;;;;;;;;5053317;28;20542;-62
2021/08/11 10:14:52;;;;;;;2.38;1.08;;;;;;;;;;5069727;28;20028;-62
2021/08/11 10:17:18;;;;;;;3.22;0.82;;;;;;;;;;5071446;28;20020;-63
2021/08/11 10:19:44;;;;;;;2.07;0.87;;;;;;;;;;5064775;28;20025;-63
2021/08/11 10:22:20;;;;;;;1.92;1.10;;;;;;;;;;5053330;28;20260;-62
2021/08/11 10:24:45;;;;;;;1.85;1.20;;;;;;;;;;5069481;28;20024;-62
2021/08/11 10:27:14;;;;;;;1.35;1.20;;;;;;;;;;5058965;28;20337;-62
2021/08/11 10:29:39;;;;;;;1.50;1.40;;;;;;;;;;5072392;28;20070;-62
2021/08/11 10:32:07;;;;;;;2.28;1.50;;;;;;;;;;5072749;28;20017;-61
2021/08/11 10:34:33;;;;;;;1.40;1.00;;;;;;;;;;5069202;28;20020;-62
2021/08/11 10:36:59;;;;;;;1.75;1.33;;;;;;;;;;5072918;28;20059;-63
2021/08/11 10:39:25;;;;;;;2.00;1.05;;;;;;;;;;5070750;28;20481;-63
2021/08/11 10:41:50;;;;;;;1.10;1.00;;;;;;;;;;5054213;28;20052;-62
2021/08/11 10:44:22;;;;;;;2.70;1.08;;;;;;;;;;5069340;28;20103;-62
2021/08/11 10:46:58;;;;;;;1.10;0.90;;;;;;;;;;5060556;28;20029;-62
2021/08/11 10:49:27;;;;;;;2.60;1.13;;;;;;;;;;5068832;28;20035;-61
2021/08/11 10:51:58;;;;;;;1.35;0.95;;;;;;;;;;5072590;28;20103;-61
2021/08/11 10:54:23;;;;;;;1.17;0.80;;;;;;;;;;5071950;28;20012;-62
2021/08/11 10:56:49;;;;;;;1.15;0.80;;;;;;;;;;5051142;28;20013;-62
2021/08/11 10:59:21;;;;;;;1.20;0.73;;;;;;;;;;5071877;28;20017;-63
2021/08/11 11:01:46;;;;;;;1.10;0.90;;;;;;;;;;5054434;28;20027;-61
2021/08/11 11:04:31;;;;;;;1.30;1.20;;;;;;;;;;5071623;28;20024;-63
2021/08/11 11:07:09;;;;;;;2.53;1.02;;;;;;;;;;5071643;28;20299;-62
2021/08/11 11:09:34;;;;;;;2.47;1.00;;;;;;;;;;5069512;28;20044;-60
2021/08/11 11:12:19;;;;;;;1.55;0.90;;;;;;;;;;5052103;28;20470;-61
2021/08/11 11:14:54;;;;;;;1.70;0.90;;;;;;;;;;5054270;28;20435;-60
2021/08/11 11:17:29;;;;;;;0.95;0.75;;;;;;;;;;5058556;28;20020;-61
2021/08/11 11:20:12;;;;;;;0.98;0.85;;;;;;;;;;5072291;28;20104;-60
2021/08/11 11:22:40;;;;;;;0.90;0.77;;;;;;;;;;5053718;28;20025;-60
2021/08/11 11:25:06;;;;;;;1.48;0.80;;;;;;;;;;5071982;28;20025;-60
2021/08/11 11:27:53;;;;;;;1.15;0.73;;;;;;;;;;5072333;28;20024;-61
2021/08/11 11:30:27;;;;;;;1.70;1.00;;;;;;;;;;5071453;28;20063;-61
2021/08/11 11:33:12;;;;;;;3.13;1.15;;;;;;;;;;5071948;28;20024;-60
2021/08/11 11:35:38;;;;;;;1.70;0.82;;;;;;;;;;5071284;28;20421;-61
2021/08/11 11:38:10;;;;;;;2.60;1.05;;;;;;;;;;5071967;28;20010;-60
2021/08/11 11:40:53;;;;;;;1.25;1.02;;;;;;;;;;5071596;28;20462;-60
2021/08/11 11:43:28;;;;;;;1.25;0.95;;;;;;;;;;5064177;28;20060;-60
2021/08/11 11:45:55;;;;;;;1.63;0.98;;;;;;;;;;5071751;28;20035;-59
2021/08/11 11:48:20;;;;;;;1.20;0.88;;;;;;;;;;5053830;28;20305;-60
2021/08/11 11:50:52;;;;;;;1.65;0.82;;;;;;;;;;5074505;28;20035;-60
2021/08/11 11:53:22;;;;;;;1.42;0.82;;;;;;;;;;5071595;28;20450;-60
2021/08/11 11:55:48;;;;;;;2.20;0.68;;;;;;;;;;5053664;28;20420;-60
2021/08/11 11:58:14;;;;;;;0.88;0.73;;;;;;;;;;5053097;28;20032;-60
2021/08/11 12:00:40;;;;;;;1.58;0.80;;;;;;;;;;5057731;28;20336;-60
2021/08/11 12:03:05;;;;;;;1.40;0.70;;;;;;;;;;5072013;28;20378;-58
2021/08/11 12:05:42;;;;;;;0.77;0.70;;;;;;;;;;5071608;28;20043;-61
2021/08/11 12:08:10;;;;;;;1.17;0.90;;;;;;;;;;5061130;28;20053;-58
2021/08/11 12:10:38;;;;;;;1.10;1.00;;;;;;;;;;5051270;28;20032;-62
2021/08/11 12:13:04;;;;;;;1.60;0.95;;;;;;;;;;5069895;28;20016;-60
2021/08/11 12:15:34;;;;;;;1.15;1.05;;;;;;;;;;5070981;28;20031;-62
2021/08/11 12:18:11;;;;;;;1.30;0.98;;;;;;;;;;5075250;28;20356;-61
2021/08/11 12:20:36;;;;;;;1.15;0.73;;;;;;;;;;5075584;28;20513;-62
2021/08/11 12:23:02;;;;;;;1.90;1.10;;;;;;;;;;5057527;28;20178;-63
2021/08/11 12:25:29;;;;;;;1.23;0.95;;;;;;;;;;5075141;28;20036;-63
2021/08/11 12:28:07;;;;;;;2.10;0.90;;;;;;;;;;5075237;28;20363;-62
2021/08/11 12:30:32;;;;;;;2.25;1.20;;;;;;;;;;5074957;28;20035;-62
2021/08/11 12:32:58;;;;;;;1.15;1.05;;;;;;;;;;5074979;28;20020;-61
2021/08/11 12:35:23;;;;;;;2.22;1.30;;;;;;;;;;5073738;28;20539;-60
2021/08/11 12:37:48;;;;;;;2.47;1.20;;;;;;;;;;5075142;28;20012;-60
2021/08/11 12:40:29;;;;;;;2.07;1.40;;;;;;;;;;5073266;28;20505;-60
2021/08/11 12:42:55;;;;;;;2.45;0.85;;;;;;;;;;5062720;28;20316;-60
2021/08/11 12:45:20;;;;;;;1.73;1.13;;;;;;;;;;5055114;28;20099;-60
2021/08/11 12:47:45;;;;;;;1.63;1.17;;;;;;;;;;5065430;28;20056;-60
2021/08/11 12:50:20;;;;;;;0.90;0.90;;;;;;;;;;5074949;28;20266;-61
2021/08/11 12:52:53;;;;;;;2.53;1.08;;;;;;;;;;5074761;28;20017;-60
2021/08/11 12:55:29;;;;;;;2.03;0.80;;;;;;;;;;5056274;28;20032;-61
2021/08/11 12:57:54;;;;;;;2.42;1.20;;;;;;;;;;5070919;28;20044;-60
2021/08/11 13:00:37;;;;;;;1.20;0.90;;;;;;;;;;5073945;28;20490;-60
2021/08/11 13:03:02;;;;;;;1.77;0.80;;;;;;;;;;5058664;28;20087;-60
2021/08/11 13:05:27;;;;;;;1.48;1.10;;;;;;;;;;5073933;28;20017;-60
2021/08/11 13:07:54;;;;;;;1.77;1.00;;;;;;;;;;5065619;28;20049;-59
2021/08/11 13:10:20;;;;;;;2.95;0.95;;;;;;;;;;5070549;28;20274;-60
2021/08/11 13:12:45;;;;;;;2.72;1.17;;;;;;;;;;5050005;28;20107;-60
2021/08/11 13:15:26;;;;;;;1.70;1.00;;;;;;;;;;5074601;28;20351;-60
2021/08/11 13:18:00;;;;;;;1.40;0.93;;;;;;;;;;5068863;28;20048;-61
2021/08/11 13:20:36;;;;;;;1.85;0.88;;;;;;;;;;5066979;28;20486;-61
2021/08/11 13:23:08;;;;;;;0.93;0.82;;;;;;;;;;5074261;28;20051;-61
2021/08/11 13:25:34;;;;;;;1.48;0.80;;;;;;;;;;5068417;28;20108;-61
2021/08/11 13:28:02;;;;;;;1.70;1.08;;;;;;;;;;5054125;28;20191;-59
2021/08/11 13:30:28;;;;;;;1.40;1.02;;;;;;;;;;5054289;28;20025;-60
2021/08/11 13:32:53;;;;;;;1.20;0.80;;;;;;;;;;5054203;28;20025;-59
2021/08/11 13:35:18;;;;;;;0.90;0.70;;;;;;;;;;5054037;28;20017;-60
2021/08/11 13:37:44;;;;;;;1.45;0.80;;;;;;;;;;5054165;28;20059;-60
2021/08/11 13:40:10;;;;;;;1.92;1.15;;;;;;;;;;5070068;28;20081;-61
2021/08/11 13:42:35;;;;;;;2.42;1.02;;;;;;;;;;5063026;28;20021;-60
2021/08/11 13:45:01;;;;;;;1.30;1.20;;;;;;;;;;5073881;28;20109;-61
2021/08/11 13:47:26;;;;;;;1.57;0.70;;;;;;;;;;5073658;28;20035;-60
2021/08/11 13:49:52;;;;;;;1.35;1.23;;;;;;;;;;5073973;28;20267;-61
2021/08/11 13:52:18;;;;;;;1.10;1.00;;;;;;;;;;5073821;28;20031;-61
2021/08/11 13:54:43;;;;;;;1.35;1.05;;;;;;;;;;5073566;28;20016;-60
2021/08/11 13:57:08;;;;;;;1.35;1.20;;;;;;;;;;5073444;28;20066;-61
2021/08/11 13:59:34;;;;;;;2.42;1.25;;;;;;;;;;5073628;28;20013;-60
2021/08/11 14:01:59;;;;;;;1.20;0.98;;;;;;;;;;5073583;28;20024;-61
2021/08/11 14:04:24;;;;;;;1.43;1.33;;;;;;;;;;5073390;28;20016;-61
2021/08/11 14:06:49;;;;;;;1.23;1.10;;;;;;;;;;5073445;28;20657;-60
2021/08/11 14:09:14;;;;;;;1.37;1.27;;;;;;;;;;5071093;28;20028;-60
2021/08/11 14:11:40;;;;;;;1.80;0.97;;;;;;;;;;5071710;28;20031;-60
2021/08/11 14:14:05;;;;;;;2.27;1.57;;;;;;;;;;5072529;28;20277;-60
2021/08/11 14:16:32;;;;;;;1.38;0.98;;;;;;;;;;5073083;28;20349;-61
2021/08/11 14:18:57;;;;;;;2.63;0.88;;;;;;;;;;5073205;28;20013;-62
2021/08/11 14:21:23;;;;;;;1.58;0.90;;;;;;;;;;5073142;28;20092;-61
2021/08/11 14:23:48;;;;;;;1.08;0.88;;;;;;;;;;5059398;28;20025;-61
2021/08/11 14:26:13;;;;;;;2.35;1.20;;;;;;;;;;5063654;28;20062;-60
2021/08/11 14:28:38;;;;;;;1.60;1.13;;;;;;;;;;5073046;28;20016;-60
2021/08/11 14:31:04;;;;;;;1.33;1.13;;;;;;;;;;5073070;28;20255;-60
2021/08/11 14:33:29;;;;;;;1.40;1.30;;;;;;;;;;5072645;28;20085;-60
2021/08/11 14:35:54;;;;;;;2.65;1.27;;;;;;;;;;5072191;28;20308;-60
2021/08/11 14:38:20;;;;;;;2.22;1.10;;;;;;;;;;5072328;28;20025;-60
2021/08/11 14:40:45;;;;;;;1.92;1.10;;;;;;;;;;5071497;28;20099;-60
2021/08/11 14:43:10;;;;;;;2.03;1.20;;;;;;;;;;5070326;28;20024;-60